sensor_id;sensor_type;location;lat;lon;timestamp;temperature;humidity
65584;DHT22;62116;43.582;1.470;2022-08-21T00:00:24;24.41;60.96
65584;DHT22;62116;43.582;1.470;2022-08-21T00:03:02;24.41;60.75
65584;DHT22;62116;43.582;1.470;2022-08-21T00:05:29;24.41;60.90
65584;DHT22;62116;43.582;1.470;2022-08-21T00:07:55;24.40;60.82
65584;DHT22;62116;43.582;1.470;2022-08-21T00:10:21;24.40;60.80
65584;DHT22;62116;43.582;1.470;2022-08-21T00:12:47;24.38;59.79
65584;DHT22;62116;43.582;1.470;2022-08-21T00:15:16;24.36;60.30
65584;DHT22;62116;43.582;1.470;2022-08-21T00:17:42;24.34;59.63
65584;DHT22;62116;43.582;1.470;2022-08-21T00:20:09;24.34;60.03
65584;DHT22;62116;43.582;1.470;2022-08-21T00:22:35;24.37;59.90
65584;DHT22;62116;43.582;1.470;2022-08-21T00:25:02;24.37;60.00
65584;DHT22;62116;43.582;1.470;2022-08-21T00:27:28;24.36;60.14
65584;DHT22;62116;43.582;1.470;2022-08-21T00:29:53;24.34;60.06
65584;DHT22;62116;43.582;1.470;2022-08-21T00:32:21;24.36;60.76
65584;DHT22;62116;43.582;1.470;2022-08-21T00:34:47;24.34;60.70
65584;DHT22;62116;43.582;1.470;2022-08-21T00:37:12;24.31;60.23
65584;DHT22;62116;43.582;1.470;2022-08-21T00:39:38;24.34;61.43
65584;DHT22;62116;43.582;1.470;2022-08-21T00:42:04;24.34;61.64
65584;DHT22;62116;43.582;1.470;2022-08-21T00:44:29;24.31;61.75
65584;DHT22;62116;43.582;1.470;2022-08-21T00:46:56;24.34;61.99
65584;DHT22;62116;43.582;1.470;2022-08-21T00:49:22;24.30;61.79
65584;DHT22;62116;43.582;1.470;2022-08-21T00:51:53;24.30;61.99
65584;DHT22;62116;43.582;1.470;2022-08-21T00:54:22;24.28;61.90
65584;DHT22;62116;43.582;1.470;2022-08-21T00:56:53;24.31;61.58
65584;DHT22;62116;43.582;1.470;2022-08-21T00:59:20;24.31;61.33
65584;DHT22;62116;43.582;1.470;2022-08-21T01:01:46;24.28;61.72
65584;DHT22;62116;43.582;1.470;2022-08-21T01:04:12;24.20;61.03
65584;DHT22;62116;43.582;1.470;2022-08-21T01:06:38;24.18;61.25
65584;DHT22;62116;43.582;1.470;2022-08-21T01:09:03;24.18;61.74
65584;DHT22;62116;43.582;1.470;2022-08-21T01:11:29;24.17;61.72
65584;DHT22;62116;43.582;1.470;2022-08-21T01:13:55;24.17;61.74
65584;DHT22;62116;43.582;1.470;2022-08-21T01:16:21;24.16;61.60
65584;DHT22;62116;43.582;1.470;2022-08-21T01:18:47;24.14;61.50
65584;DHT22;62116;43.582;1.470;2022-08-21T01:21:17;24.14;61.28
65584;DHT22;62116;43.582;1.470;2022-08-21T01:23:44;24.12;61.62
65584;DHT22;62116;43.582;1.470;2022-08-21T01:26:12;24.09;61.28
65584;DHT22;62116;43.582;1.470;2022-08-21T01:28:42;24.10;61.73
65584;DHT22;62116;43.582;1.470;2022-08-21T01:31:10;24.07;61.65
65584;DHT22;62116;43.582;1.470;2022-08-21T01:33:37;24.09;62.04
65584;DHT22;62116;43.582;1.470;2022-08-21T01:36:03;24.06;61.83
65584;DHT22;62116;43.582;1.470;2022-08-21T01:38:29;24.06;62.01
65584;DHT22;62116;43.582;1.470;2022-08-21T01:40:55;24.09;62.10
65584;DHT22;62116;43.582;1.470;2022-08-21T01:43:20;24.06;61.74
65584;DHT22;62116;43.582;1.470;2022-08-21T01:45:46;24.02;62.24
65584;DHT22;62116;43.582;1.470;2022-08-21T01:48:11;24.04;62.22
65584;DHT22;62116;43.582;1.470;2022-08-21T01:50:36;24.02;62.06
65584;DHT22;62116;43.582;1.470;2022-08-21T01:53:02;24.00;62.71
65584;DHT22;62116;43.582;1.470;2022-08-21T01:55:27;23.99;62.54
65584;DHT22;62116;43.582;1.470;2022-08-21T01:57:53;23.99;62.61
65584;DHT22;62116;43.582;1.470;2022-08-21T02:00:21;23.99;63.47
65584;DHT22;62116;43.582;1.470;2022-08-21T02:02:48;24.00;63.20
65584;DHT22;62116;43.582;1.470;2022-08-21T02:05:14;23.90;62.95
65584;DHT22;62116;43.582;1.470;2022-08-21T02:07:43;23.90;63.15
65584;DHT22;62116;43.582;1.470;2022-08-21T02:10:12;23.90;63.23
65584;DHT22;62116;43.582;1.470;2022-08-21T02:12:37;23.89;63.56
65584;DHT22;62116;43.582;1.470;2022-08-21T02:15:04;23.84;63.20
65584;DHT22;62116;43.582;1.470;2022-08-21T02:20:05;23.89;63.28
65584;DHT22;62116;43.582;1.470;2022-08-21T02:22:30;23.90;63.49
65584;DHT22;62116;43.582;1.470;2022-08-21T02:24:56;23.90;63.63
65584;DHT22;62116;43.582;1.470;2022-08-21T02:27:23;23.87;63.26
65584;DHT22;62116;43.582;1.470;2022-08-21T02:29:48;23.86;63.46
65584;DHT22;62116;43.582;1.470;2022-08-21T02:32:14;23.83;63.72
65584;DHT22;62116;43.582;1.470;2022-08-21T02:34:39;23.80;63.58
65584;DHT22;62116;43.582;1.470;2022-08-21T02:37:05;23.76;63.95
65584;DHT22;62116;43.582;1.470;2022-08-21T02:39:30;23.74;63.65
65584;DHT22;62116;43.582;1.470;2022-08-21T02:41:55;23.74;63.92
65584;DHT22;62116;43.582;1.470;2022-08-21T02:44:21;23.67;64.26
65584;DHT22;62116;43.582;1.470;2022-08-21T02:46:46;23.73;64.16
65584;DHT22;62116;43.582;1.470;2022-08-21T02:49:11;23.73;64.22
65584;DHT22;62116;43.582;1.470;2022-08-21T02:51:37;23.67;64.12
65584;DHT22;62116;43.582;1.470;2022-08-21T02:54:02;23.65;64.47
65584;DHT22;62116;43.582;1.470;2022-08-21T02:56:27;23.65;64.48
65584;DHT22;62116;43.582;1.470;2022-08-21T02:58:54;23.63;64.69
65584;DHT22;62116;43.582;1.470;2022-08-21T03:01:20;23.63;64.78
65584;DHT22;62116;43.582;1.470;2022-08-21T03:03:47;23.60;64.87
65584;DHT22;62116;43.582;1.470;2022-08-21T03:06:18;23.60;64.81
65584;DHT22;62116;43.582;1.470;2022-08-21T03:08:44;23.60;64.83
65584;DHT22;62116;43.582;1.470;2022-08-21T03:11:11;23.56;64.87
65584;DHT22;62116;43.582;1.470;2022-08-21T03:13:37;23.53;64.84
65584;DHT22;62116;43.582;1.470;2022-08-21T03:16:03;23.53;64.91
65584;DHT22;62116;43.582;1.470;2022-08-21T03:18:29;23.55;64.87
65584;DHT22;62116;43.582;1.470;2022-08-21T03:20:54;23.53;64.63
65584;DHT22;62116;43.582;1.470;2022-08-21T03:23:20;23.55;64.55
65584;DHT22;62116;43.582;1.470;2022-08-21T03:25:47;23.53;64.19
65584;DHT22;62116;43.582;1.470;2022-08-21T03:28:16;23.53;64.16
65584;DHT22;62116;43.582;1.470;2022-08-21T03:30:44;23.55;64.14
65584;DHT22;62116;43.582;1.470;2022-08-21T03:33:10;23.53;64.21
65584;DHT22;62116;43.582;1.470;2022-08-21T03:35:35;23.52;64.45
65584;DHT22;62116;43.582;1.470;2022-08-21T03:38:01;23.49;64.58
65584;DHT22;62116;43.582;1.470;2022-08-21T03:40:26;23.50;64.12
65584;DHT22;62116;43.582;1.470;2022-08-21T03:42:52;23.53;64.02
65584;DHT22;62116;43.582;1.470;2022-08-21T03:45:18;23.52;63.77
65584;DHT22;62116;43.582;1.470;2022-08-21T03:47:55;23.52;63.91
65584;DHT22;62116;43.582;1.470;2022-08-21T03:50:24;23.52;63.76
65584;DHT22;62116;43.582;1.470;2022-08-21T03:52:49;23.49;63.66
65584;DHT22;62116;43.582;1.470;2022-08-21T03:55:15;23.56;63.53
65584;DHT22;62116;43.582;1.470;2022-08-21T03:57:40;23.52;63.66
65584;DHT22;62116;43.582;1.470;2022-08-21T04:00:07;23.49;63.55
65584;DHT22;62116;43.582;1.470;2022-08-21T04:02:38;23.52;63.46
65584;DHT22;62116;43.582;1.470;2022-08-21T04:05:04;23.52;63.57
65584;DHT22;62116;43.582;1.470;2022-08-21T04:07:29;23.49;63.62
65584;DHT22;62116;43.582;1.470;2022-08-21T04:09:55;23.52;63.62
65584;DHT22;62116;43.582;1.470;2022-08-21T04:12:21;23.50;63.52
65584;DHT22;62116;43.582;1.470;2022-08-21T04:14:47;23.50;63.70
65584;DHT22;62116;43.582;1.470;2022-08-21T04:17:12;23.49;63.51
65584;DHT22;62116;43.582;1.470;2022-08-21T04:19:38;23.49;63.63
65584;DHT22;62116;43.582;1.470;2022-08-21T04:22:03;23.50;63.58
65584;DHT22;62116;43.582;1.470;2022-08-21T04:24:29;23.50;63.39
65584;DHT22;62116;43.582;1.470;2022-08-21T04:26:55;23.48;63.59
65584;DHT22;62116;43.582;1.470;2022-08-21T04:29:20;23.45;63.41
65584;DHT22;62116;43.582;1.470;2022-08-21T04:31:46;23.46;63.48
65584;DHT22;62116;43.582;1.470;2022-08-21T04:34:11;23.50;63.30
65584;DHT22;62116;43.582;1.470;2022-08-21T04:36:37;23.48;63.15
65584;DHT22;62116;43.582;1.470;2022-08-21T04:39:02;23.45;63.15
65584;DHT22;62116;43.582;1.470;2022-08-21T04:41:28;23.43;63.45
65584;DHT22;62116;43.582;1.470;2022-08-21T04:43:54;23.46;63.90
65584;DHT22;62116;43.582;1.470;2022-08-21T04:46:20;23.48;63.90
65584;DHT22;62116;43.582;1.470;2022-08-21T04:48:46;23.48;64.10
65584;DHT22;62116;43.582;1.470;2022-08-21T04:54:12;23.42;64.41
65584;DHT22;62116;43.582;1.470;2022-08-21T04:56:42;23.41;64.54
65584;DHT22;62116;43.582;1.470;2022-08-21T04:59:16;23.39;64.84
65584;DHT22;62116;43.582;1.470;2022-08-21T05:01:43;23.41;65.04
65584;DHT22;62116;43.582;1.470;2022-08-21T05:04:13;23.41;65.09
65584;DHT22;62116;43.582;1.470;2022-08-21T05:06:41;23.42;64.94
65584;DHT22;62116;43.582;1.470;2022-08-21T05:09:08;23.42;65.00
65584;DHT22;62116;43.582;1.470;2022-08-21T05:11:34;23.43;64.88
65584;DHT22;62116;43.582;1.470;2022-08-21T05:14:00;23.42;65.01
65584;DHT22;62116;43.582;1.470;2022-08-21T05:16:26;23.41;65.27
65584;DHT22;62116;43.582;1.470;2022-08-21T05:18:51;23.43;65.24
65584;DHT22;62116;43.582;1.470;2022-08-21T05:21:17;23.37;65.45
65584;DHT22;62116;43.582;1.470;2022-08-21T05:23:42;23.33;65.38
65584;DHT22;62116;43.582;1.470;2022-08-21T05:26:08;23.32;65.51
65584;DHT22;62116;43.582;1.470;2022-08-21T05:28:33;23.29;65.59
65584;DHT22;62116;43.582;1.470;2022-08-21T05:30:59;23.26;65.94
65584;DHT22;62116;43.582;1.470;2022-08-21T05:33:24;23.25;66.25
65584;DHT22;62116;43.582;1.470;2022-08-21T05:35:52;23.26;65.79
65584;DHT22;62116;43.582;1.470;2022-08-21T05:38:18;23.29;65.83
65584;DHT22;62116;43.582;1.470;2022-08-21T05:40:43;23.28;65.76
65584;DHT22;62116;43.582;1.470;2022-08-21T05:43:09;23.26;65.65
65584;DHT22;62116;43.582;1.470;2022-08-21T05:45:34;23.25;65.97
65584;DHT22;62116;43.582;1.470;2022-08-21T05:48:20;23.18;66.05
65584;DHT22;62116;43.582;1.470;2022-08-21T05:50:47;23.20;66.08
65584;DHT22;62116;43.582;1.470;2022-08-21T05:53:13;23.23;66.36
65584;DHT22;62116;43.582;1.470;2022-08-21T05:55:40;23.23;66.16
65584;DHT22;62116;43.582;1.470;2022-08-21T05:58:06;23.26;66.20
65584;DHT22;62116;43.582;1.470;2022-08-21T06:00:32;23.22;66.38
65584;DHT22;62116;43.582;1.470;2022-08-21T06:02:58;23.25;66.40
65584;DHT22;62116;43.582;1.470;2022-08-21T06:05:24;23.26;66.51
65584;DHT22;62116;43.582;1.470;2022-08-21T06:07:49;23.26;66.67
65584;DHT22;62116;43.582;1.470;2022-08-21T06:10:15;23.28;66.59
65584;DHT22;62116;43.582;1.470;2022-08-21T06:12:40;23.33;66.44
65584;DHT22;62116;43.582;1.470;2022-08-21T06:15:06;23.38;66.16
65584;DHT22;62116;43.582;1.470;2022-08-21T06:17:31;23.39;65.87
65584;DHT22;62116;43.582;1.470;2022-08-21T06:19:57;23.41;65.72
65584;DHT22;62116;43.582;1.470;2022-08-21T06:22:22;23.45;66.13
65584;DHT22;62116;43.582;1.470;2022-08-21T06:24:48;23.45;65.74
65584;DHT22;62116;43.582;1.470;2022-08-21T06:27:14;23.46;65.77
65584;DHT22;62116;43.582;1.470;2022-08-21T06:29:40;23.46;65.96
65584;DHT22;62116;43.582;1.470;2022-08-21T06:32:06;23.52;65.99
65584;DHT22;62116;43.582;1.470;2022-08-21T06:34:36;23.55;66.42
65584;DHT22;62116;43.582;1.470;2022-08-21T06:37:02;23.58;66.18
65584;DHT22;62116;43.582;1.470;2022-08-21T06:39:27;23.58;65.96
65584;DHT22;62116;43.582;1.470;2022-08-21T06:41:52;23.55;65.98
65584;DHT22;62116;43.582;1.470;2022-08-21T06:44:18;23.59;65.94
65584;DHT22;62116;43.582;1.470;2022-08-21T06:46:44;23.63;66.40
65584;DHT22;62116;43.582;1.470;2022-08-21T06:49:09;23.65;65.75
65584;DHT22;62116;43.582;1.470;2022-08-21T06:51:34;23.67;65.49
65584;DHT22;62116;43.582;1.470;2022-08-21T06:54:00;23.69;64.99
65584;DHT22;62116;43.582;1.470;2022-08-21T06:56:25;23.73;65.11
65584;DHT22;62116;43.582;1.470;2022-08-21T06:58:51;23.80;64.79
65584;DHT22;62116;43.582;1.470;2022-08-21T07:01:18;23.82;64.75
65584;DHT22;62116;43.582;1.470;2022-08-21T07:03:44;23.86;64.61
65584;DHT22;62116;43.582;1.470;2022-08-21T07:06:10;23.89;64.64
65584;DHT22;62116;43.582;1.470;2022-08-21T07:08:37;23.87;64.82
65584;DHT22;62116;43.582;1.470;2022-08-21T07:11:09;23.86;64.35
65584;DHT22;62116;43.582;1.470;2022-08-21T07:13:34;23.84;64.47
65584;DHT22;62116;43.582;1.470;2022-08-21T07:16:00;23.86;64.37
65584;DHT22;62116;43.582;1.470;2022-08-21T07:18:26;23.94;63.97
65584;DHT22;62116;43.582;1.470;2022-08-21T07:20:51;24.02;63.80
65584;DHT22;62116;43.582;1.470;2022-08-21T07:23:26;24.13;63.38
65584;DHT22;62116;43.582;1.470;2022-08-21T07:25:53;24.26;62.97
65584;DHT22;62116;43.582;1.470;2022-08-21T07:28:19;24.31;62.96
65584;DHT22;62116;43.582;1.470;2022-08-21T07:30:45;24.38;62.87
65584;DHT22;62116;43.582;1.470;2022-08-21T07:33:11;24.47;62.22
65584;DHT22;62116;43.582;1.470;2022-08-21T07:35:36;24.56;62.13
65584;DHT22;62116;43.582;1.470;2022-08-21T07:38:02;24.65;62.31
65584;DHT22;62116;43.582;1.470;2022-08-21T07:40:27;24.67;61.42
65584;DHT22;62116;43.582;1.470;2022-08-21T07:42:52;24.65;61.29
65584;DHT22;62116;43.582;1.470;2022-08-21T07:45:21;24.64;61.00
65584;DHT22;62116;43.582;1.470;2022-08-21T07:47:47;24.63;61.26
65584;DHT22;62116;43.582;1.470;2022-08-21T07:50:13;24.69;61.18
65584;DHT22;62116;43.582;1.470;2022-08-21T07:52:41;24.69;60.93
65584;DHT22;62116;43.582;1.470;2022-08-21T07:55:10;24.77;60.72
65584;DHT22;62116;43.582;1.470;2022-08-21T07:57:37;24.82;60.83
65584;DHT22;62116;43.582;1.470;2022-08-21T08:00:12;24.89;60.62
65584;DHT22;62116;43.582;1.470;2022-08-21T08:02:39;24.96;60.56
65584;DHT22;62116;43.582;1.470;2022-08-21T08:05:08;24.92;60.28
65584;DHT22;62116;43.582;1.470;2022-08-21T08:07:34;24.89;60.22
65584;DHT22;62116;43.582;1.470;2022-08-21T08:10:00;24.87;60.35
65584;DHT22;62116;43.582;1.470;2022-08-21T08:12:26;24.92;60.19
65584;DHT22;62116;43.582;1.470;2022-08-21T08:14:59;24.99;60.11
65584;DHT22;62116;43.582;1.470;2022-08-21T08:17:24;25.09;60.15
65584;DHT22;62116;43.582;1.470;2022-08-21T08:19:50;25.12;59.59
65584;DHT22;62116;43.582;1.470;2022-08-21T08:22:17;25.18;59.50
65584;DHT22;62116;43.582;1.470;2022-08-21T08:24:45;25.26;59.37
65584;DHT22;62116;43.582;1.470;2022-08-21T08:27:11;25.23;59.10
65584;DHT22;62116;43.582;1.470;2022-08-21T08:29:37;25.18;59.15
65584;DHT22;62116;43.582;1.470;2022-08-21T08:32:04;25.18;59.33
65584;DHT22;62116;43.582;1.470;2022-08-21T08:34:30;25.21;59.50
65584;DHT22;62116;43.582;1.470;2022-08-21T08:36:55;25.23;59.45
65584;DHT22;62116;43.582;1.470;2022-08-21T08:39:23;25.31;59.12
65584;DHT22;62116;43.582;1.470;2022-08-21T08:41:48;25.38;58.67
65584;DHT22;62116;43.582;1.470;2022-08-21T08:44:16;25.49;58.54
65584;DHT22;62116;43.582;1.470;2022-08-21T08:46:47;25.59;58.27
65584;DHT22;62116;43.582;1.470;2022-08-21T08:49:24;25.66;58.53
65584;DHT22;62116;43.582;1.470;2022-08-21T08:52:00;25.77;57.87
65584;DHT22;62116;43.582;1.470;2022-08-21T08:54:38;25.85;57.54
65584;DHT22;62116;43.582;1.470;2022-08-21T08:57:10;25.89;57.01
65584;DHT22;62116;43.582;1.470;2022-08-21T08:59:43;25.92;56.32
65584;DHT22;62116;43.582;1.470;2022-08-21T09:02:11;25.87;55.54
65584;DHT22;62116;43.582;1.470;2022-08-21T09:04:37;25.89;56.11
65584;DHT22;62116;43.582;1.470;2022-08-21T09:07:16;25.96;55.98
65584;DHT22;62116;43.582;1.470;2022-08-21T09:12:31;26.08;55.42
65584;DHT22;62116;43.582;1.470;2022-08-21T09:15:06;26.13;55.51
65584;DHT22;62116;43.582;1.470;2022-08-21T09:20:39;26.18;55.17
65584;DHT22;62116;43.582;1.470;2022-08-21T09:25:59;26.07;54.78
65584;DHT22;62116;43.582;1.470;2022-08-21T09:28:25;26.12;53.83
65584;DHT22;62116;43.582;1.470;2022-08-21T09:30:55;26.14;53.82
65584;DHT22;62116;43.582;1.470;2022-08-21T09:33:21;26.18;54.22
65584;DHT22;62116;43.582;1.470;2022-08-21T09:35:54;26.24;54.31
65584;DHT22;62116;43.582;1.470;2022-08-21T09:38:34;26.30;54.46
65584;DHT22;62116;43.582;1.470;2022-08-21T09:41:07;26.37;53.84
65584;DHT22;62116;43.582;1.470;2022-08-21T09:43:34;26.38;53.58
65584;DHT22;62116;43.582;1.470;2022-08-21T09:46:10;26.41;52.78
65584;DHT22;62116;43.582;1.470;2022-08-21T09:48:56;26.43;52.65
65584;DHT22;62116;43.582;1.470;2022-08-21T09:51:34;26.40;51.20
65584;DHT22;62116;43.582;1.470;2022-08-21T09:56:38;26.52;52.01
65584;DHT22;62116;43.582;1.470;2022-08-21T09:59:32;26.57;51.88
65584;DHT22;62116;43.582;1.470;2022-08-21T10:02:00;26.57;52.18
65584;DHT22;62116;43.582;1.470;2022-08-21T10:04:35;26.51;51.59
65584;DHT22;62116;43.582;1.470;2022-08-21T10:07:13;26.57;51.42
65584;DHT22;62116;43.582;1.470;2022-08-21T10:09:40;26.60;51.51
65584;DHT22;62116;43.582;1.470;2022-08-21T10:17:47;26.77;51.23
65584;DHT22;62116;43.582;1.470;2022-08-21T10:25:28;26.84;51.28
65584;DHT22;62116;43.582;1.470;2022-08-21T10:28:20;26.88;51.35
65584;DHT22;62116;43.582;1.470;2022-08-21T10:31:14;26.88;51.99
65584;DHT22;62116;43.582;1.470;2022-08-21T10:33:50;26.85;51.63
65584;DHT22;62116;43.582;1.470;2022-08-21T10:36:36;26.81;51.37
65584;DHT22;62116;43.582;1.470;2022-08-21T10:39:17;26.85;51.77
65584;DHT22;62116;43.582;1.470;2022-08-21T10:44:30;26.85;51.35
65584;DHT22;62116;43.582;1.470;2022-08-21T10:47:12;26.88;51.90
65584;DHT22;62116;43.582;1.470;2022-08-21T10:55:31;27.15;49.86
65584;DHT22;62116;43.582;1.470;2022-08-21T10:58:19;27.16;50.37
65584;DHT22;62116;43.582;1.470;2022-08-21T11:00:49;27.16;50.10
65584;DHT22;62116;43.582;1.470;2022-08-21T11:03:28;27.18;48.68
65584;DHT22;62116;43.582;1.470;2022-08-21T11:05:59;27.18;48.93
65584;DHT22;62116;43.582;1.470;2022-08-21T11:08:38;27.14;48.87
65584;DHT22;62116;43.582;1.470;2022-08-21T11:11:10;27.18;49.06
65584;DHT22;62116;43.582;1.470;2022-08-21T11:13:45;27.19;49.48
65584;DHT22;62116;43.582;1.470;2022-08-21T11:19:05;27.15;49.59
65584;DHT22;62116;43.582;1.470;2022-08-21T11:21:43;27.21;49.59
65584;DHT22;62116;43.582;1.470;2022-08-21T11:26:57;27.15;50.24
65584;DHT22;62116;43.582;1.470;2022-08-21T11:29:28;27.19;49.46
65584;DHT22;62116;43.582;1.470;2022-08-21T11:35:07;27.26;49.24
65584;DHT22;62116;43.582;1.470;2022-08-21T11:43:27;27.26;48.27
65584;DHT22;62116;43.582;1.470;2022-08-21T11:48:36;27.22;47.27
65584;DHT22;62116;43.582;1.470;2022-08-21T11:51:09;27.28;47.45
65584;DHT22;62116;43.582;1.470;2022-08-21T11:53:38;27.32;48.03
65584;DHT22;62116;43.582;1.470;2022-08-21T11:56:13;27.34;48.08
65584;DHT22;62116;43.582;1.470;2022-08-21T11:58:45;27.34;48.14
65584;DHT22;62116;43.582;1.470;2022-08-21T12:01:19;27.31;48.04
65584;DHT22;62116;43.582;1.470;2022-08-21T12:04:00;27.34;47.18
65584;DHT22;62116;43.582;1.470;2022-08-21T12:09:07;27.29;47.40
65584;DHT22;62116;43.582;1.470;2022-08-21T12:11:46;27.34;47.64
65584;DHT22;62116;43.582;1.470;2022-08-21T12:14:15;27.38;47.37
65584;DHT22;62116;43.582;1.470;2022-08-21T12:16:43;27.36;47.39
65584;DHT22;62116;43.582;1.470;2022-08-21T12:19:10;27.31;47.99
65584;DHT22;62116;43.582;1.470;2022-08-21T12:24:36;27.34;47.90
65584;DHT22;62116;43.582;1.470;2022-08-21T12:29:58;27.39;47.83
65584;DHT22;62116;43.582;1.470;2022-08-21T12:32:44;27.38;47.94
65584;DHT22;62116;43.582;1.470;2022-08-21T12:35:15;27.38;47.47
65584;DHT22;62116;43.582;1.470;2022-08-21T12:37:48;27.34;47.37
65584;DHT22;62116;43.582;1.470;2022-08-21T12:42:47;27.34;47.91
65584;DHT22;62116;43.582;1.470;2022-08-21T12:45:22;27.38;48.30
65584;DHT22;62116;43.582;1.470;2022-08-21T12:47:56;27.31;48.14
65584;DHT22;62116;43.582;1.470;2022-08-21T12:50:36;27.35;48.35
65584;DHT22;62116;43.582;1.470;2022-08-21T12:55:48;27.36;48.05
65584;DHT22;62116;43.582;1.470;2022-08-21T12:58:22;27.38;47.78
65584;DHT22;62116;43.582;1.470;2022-08-21T13:00:53;27.36;47.70
65584;DHT22;62116;43.582;1.470;2022-08-21T13:03:21;27.38;47.82
65584;DHT22;62116;43.582;1.470;2022-08-21T13:05:47;27.34;47.55
65584;DHT22;62116;43.582;1.470;2022-08-21T13:08:13;27.34;47.82
65584;DHT22;62116;43.582;1.470;2022-08-21T13:10:40;27.32;47.61
65584;DHT22;62116;43.582;1.470;2022-08-21T13:13:19;27.32;47.92
65584;DHT22;62116;43.582;1.470;2022-08-21T13:15:45;27.36;47.82
65584;DHT22;62116;43.582;1.470;2022-08-21T13:18:23;27.36;47.52
65584;DHT22;62116;43.582;1.470;2022-08-21T13:20:50;27.32;47.81
65584;DHT22;62116;43.582;1.470;2022-08-21T13:25:48;27.38;47.78
65584;DHT22;62116;43.582;1.470;2022-08-21T13:28:13;27.38;47.34
65584;DHT22;62116;43.582;1.470;2022-08-21T13:30:44;27.36;47.61
65584;DHT22;62116;43.582;1.470;2022-08-21T13:33:13;27.39;47.04
65584;DHT22;62116;43.582;1.470;2022-08-21T13:38:25;27.35;47.15
65584;DHT22;62116;43.582;1.470;2022-08-21T13:40:58;27.39;47.40
65584;DHT22;62116;43.582;1.470;2022-08-21T13:43:46;27.41;47.42
65584;DHT22;62116;43.582;1.470;2022-08-21T13:46:14;27.36;47.51
65584;DHT22;62116;43.582;1.470;2022-08-21T13:48:40;27.35;47.50
65584;DHT22;62116;43.582;1.470;2022-08-21T13:51:07;27.34;47.71
65584;DHT22;62116;43.582;1.470;2022-08-21T13:53:47;27.35;47.47
65584;DHT22;62116;43.582;1.470;2022-08-21T13:56:30;27.32;47.28
65584;DHT22;62116;43.582;1.470;2022-08-21T13:58:57;27.36;47.06
65584;DHT22;62116;43.582;1.470;2022-08-21T14:01:33;27.35;47.27
65584;DHT22;62116;43.582;1.470;2022-08-21T14:04:16;27.38;47.23
65584;DHT22;62116;43.582;1.470;2022-08-21T14:06:44;27.36;47.42
65584;DHT22;62116;43.582;1.470;2022-08-21T14:09:14;27.34;47.59
65584;DHT22;62116;43.582;1.470;2022-08-21T14:11:48;27.36;47.72
65584;DHT22;62116;43.582;1.470;2022-08-21T14:14:24;27.38;47.60
65584;DHT22;62116;43.582;1.470;2022-08-21T14:16:56;27.46;47.48
65584;DHT22;62116;43.582;1.470;2022-08-21T14:19:36;27.42;47.61
65584;DHT22;62116;43.582;1.470;2022-08-21T14:22:22;27.42;47.69
65584;DHT22;62116;43.582;1.470;2022-08-21T14:24:48;27.49;48.17
65584;DHT22;62116;43.582;1.470;2022-08-21T14:27:17;27.49;47.46
65584;DHT22;62116;43.582;1.470;2022-08-21T14:29:43;27.43;47.52
65584;DHT22;62116;43.582;1.470;2022-08-21T14:32:13;27.45;47.66
65584;DHT22;62116;43.582;1.470;2022-08-21T14:34:39;27.50;47.66
65584;DHT22;62116;43.582;1.470;2022-08-21T14:37:04;27.47;47.63
65584;DHT22;62116;43.582;1.470;2022-08-21T14:39:30;27.53;47.49
65584;DHT22;62116;43.582;1.470;2022-08-21T14:41:56;27.46;47.37
65584;DHT22;62116;43.582;1.470;2022-08-21T14:44:22;27.45;47.81
65584;DHT22;62116;43.582;1.470;2022-08-21T14:46:48;27.47;47.94
65584;DHT22;62116;43.582;1.470;2022-08-21T14:49:13;27.46;47.74
65584;DHT22;62116;43.582;1.470;2022-08-21T14:51:38;27.43;48.01
65584;DHT22;62116;43.582;1.470;2022-08-21T14:54:05;27.41;47.89
65584;DHT22;62116;43.582;1.470;2022-08-21T14:56:32;27.39;48.16
65584;DHT22;62116;43.582;1.470;2022-08-21T14:59:04;27.39;47.65
65584;DHT22;62116;43.582;1.470;2022-08-21T15:01:31;27.35;47.86
65584;DHT22;62116;43.582;1.470;2022-08-21T15:03:57;27.34;47.93
65584;DHT22;62116;43.582;1.470;2022-08-21T15:06:23;27.31;47.99
65584;DHT22;62116;43.582;1.470;2022-08-21T15:08:48;27.34;48.07
65584;DHT22;62116;43.582;1.470;2022-08-21T15:11:20;27.39;50.32
65584;DHT22;62116;43.582;1.470;2022-08-21T15:13:53;27.36;48.75
65584;DHT22;62116;43.582;1.470;2022-08-21T15:16:20;27.31;49.23
65584;DHT22;62116;43.582;1.470;2022-08-21T15:18:45;27.21;50.26
65584;DHT22;62116;43.582;1.470;2022-08-21T15:21:11;27.09;49.61
65584;DHT22;62116;43.582;1.470;2022-08-21T15:23:36;26.94;48.69
65584;DHT22;62116;43.582;1.470;2022-08-21T15:26:02;26.88;49.19
65584;DHT22;62116;43.582;1.470;2022-08-21T15:28:28;26.80;50.21
65584;DHT22;62116;43.582;1.470;2022-08-21T15:30:53;26.71;50.78
65584;DHT22;62116;43.582;1.470;2022-08-21T15:33:19;26.62;49.77
65584;DHT22;62116;43.582;1.470;2022-08-21T15:35:44;26.61;49.74
65584;DHT22;62116;43.582;1.470;2022-08-21T15:38:12;26.60;51.82
65584;DHT22;62116;43.582;1.470;2022-08-21T15:40:38;26.52;50.63
65584;DHT22;62116;43.582;1.470;2022-08-21T15:43:05;26.52;52.21
65584;DHT22;62116;43.582;1.470;2022-08-21T15:45:32;26.50;54.85
65584;DHT22;62116;43.582;1.470;2022-08-21T15:47:58;26.50;54.71
65584;DHT22;62116;43.582;1.470;2022-08-21T15:50:24;26.47;52.26
65584;DHT22;62116;43.582;1.470;2022-08-21T15:52:51;26.50;51.72
65584;DHT22;62116;43.582;1.470;2022-08-21T15:55:16;26.52;51.92
65584;DHT22;62116;43.582;1.470;2022-08-21T15:57:45;26.54;50.38
65584;DHT22;62116;43.582;1.470;2022-08-21T16:00:17;26.57;50.66
65584;DHT22;62116;43.582;1.470;2022-08-21T16:02:46;26.60;50.42
65584;DHT22;62116;43.582;1.470;2022-08-21T16:05:14;26.62;50.25
65584;DHT22;62116;43.582;1.470;2022-08-21T16:07:42;26.70;50.36
65584;DHT22;62116;43.582;1.470;2022-08-21T16:10:08;26.68;51.00
65584;DHT22;62116;43.582;1.470;2022-08-21T16:12:37;26.70;50.57
65584;DHT22;62116;43.582;1.470;2022-08-21T16:15:06;26.68;50.28
65584;DHT22;62116;43.582;1.470;2022-08-21T16:17:35;26.74;50.23
65584;DHT22;62116;43.582;1.470;2022-08-21T16:20:06;26.72;50.03
65584;DHT22;62116;43.582;1.470;2022-08-21T16:22:31;26.75;50.05
65584;DHT22;62116;43.582;1.470;2022-08-21T16:24:57;26.80;49.87
65584;DHT22;62116;43.582;1.470;2022-08-21T16:27:22;26.77;49.81
65584;DHT22;62116;43.582;1.470;2022-08-21T16:29:48;26.78;50.00
65584;DHT22;62116;43.582;1.470;2022-08-21T16:32:14;26.77;49.93
65584;DHT22;62116;43.582;1.470;2022-08-21T16:34:44;26.77;49.99
65584;DHT22;62116;43.582;1.470;2022-08-21T16:37:10;26.81;50.68
65584;DHT22;62116;43.582;1.470;2022-08-21T16:39:35;26.78;50.28
65584;DHT22;62116;43.582;1.470;2022-08-21T16:42:01;26.81;50.28
65584;DHT22;62116;43.582;1.470;2022-08-21T16:44:26;26.81;50.25
65584;DHT22;62116;43.582;1.470;2022-08-21T16:46:52;26.81;50.06
65584;DHT22;62116;43.582;1.470;2022-08-21T16:49:18;26.85;50.30